createdAt,value
2023-05-09T00:01:42.664Z,84.04
2023-05-09T00:04:10.088Z,83.56
2023-05-09T00:06:37.053Z,83.36
2023-05-09T00:09:04.610Z,82.95
2023-05-09T00:11:31.584Z,83.27
2023-05-09T00:13:58.472Z,83.10
2023-05-09T00:16:25.434Z,83.02
2023-05-09T00:18:53.937Z,83.18
2023-05-09T00:21:20.849Z,83.58
2023-05-09T00:23:47.685Z,84.06
2023-05-09T00:26:14.531Z,84.13
2023-05-09T00:28:43.571Z,84.50
2023-05-09T00:31:10.624Z,84.16
2023-05-09T00:33:37.455Z,83.65
2023-05-09T00:36:06.672Z,83.66
2023-05-09T00:38:34.176Z,83.54
2023-05-09T00:41:01.050Z,83.38
2023-05-09T00:43:27.957Z,83.82
2023-05-09T00:45:55.381Z,84.01
2023-05-09T00:48:22.368Z,83.69
2023-05-09T00:50:49.239Z,83.59
2023-05-09T00:53:17.479Z,85.32
2023-05-09T00:55:44.995Z,86.22
2023-05-09T00:58:13.535Z,86.65
2023-05-09T01:00:40.776Z,87.32
2023-05-09T01:03:08.081Z,87.70
2023-05-09T01:05:52.090Z,88.06
2023-05-09T01:08:41.386Z,88.01
2023-05-09T01:11:18.393Z,87.69
2023-05-09T01:14:03.106Z,87.48
2023-05-09T01:16:38.670Z,86.99
2023-05-09T01:19:36.351Z,86.46
2023-05-09T01:22:09.140Z,86.26
2023-05-09T01:25:20.269Z,85.66
2023-05-09T01:27:58.460Z,86.17
2023-05-09T01:30:31.021Z,86.20
2023-05-09T01:33:21.609Z,86.83
2023-05-09T01:35:57.769Z,87.24
2023-05-09T01:38:33.821Z,87.21
2023-05-09T01:41:03.011Z,87.69
2023-05-09T01:43:32.820Z,87.59
2023-05-09T01:46:04.744Z,87.83
2023-05-09T01:48:35.835Z,87.38
2023-05-09T01:51:04.649Z,86.94
2023-05-09T01:53:36.009Z,86.65
2023-05-09T01:56:06.310Z,86.54
2023-05-09T01:58:35.587Z,86.14
2023-05-09T02:08:47.210Z,85.56
2023-05-09T02:11:15.888Z,85.21
2023-05-09T02:18:29.729Z,86.15
2023-05-09T02:20:58.642Z,85.95
2023-05-09T02:23:26.159Z,85.60
2023-05-09T02:25:53.261Z,85.00
2023-05-09T02:28:22.856Z,84.93
2023-05-09T02:30:53.082Z,84.74
2023-05-09T02:33:20.058Z,84.28
2023-05-09T02:35:47.844Z,84.07
2023-05-09T02:38:16.424Z,84.56
2023-05-09T02:40:43.782Z,84.42
2023-05-09T02:43:10.934Z,84.76
2023-05-09T02:45:37.743Z,84.88
2023-05-09T02:48:08.508Z,85.69
2023-05-09T02:50:36.131Z,85.63
2023-05-09T02:53:02.924Z,85.35
2023-05-09T02:55:31.239Z,85.18
2023-05-09T02:58:12.049Z,85.28
2023-05-09T03:00:41.021Z,84.60
2023-05-09T03:03:09.204Z,84.68
2023-05-09T03:05:36.214Z,84.12
2023-05-09T03:16:56.465Z,83.10
2023-05-09T03:19:37.708Z,83.68
2023-05-09T03:22:05.890Z,84.35
2023-05-09T03:24:37.535Z,83.64
2023-05-09T03:28:03.788Z,83.71
2023-05-09T03:30:32.468Z,83.77
2023-05-09T03:32:59.763Z,83.38
2023-05-09T03:35:26.849Z,82.95
2023-05-09T03:37:54.803Z,82.14
2023-05-09T03:40:22.083Z,82.27
2023-05-09T03:42:55.851Z,82.14
2023-05-09T03:45:22.772Z,82.78
2023-05-09T03:47:51.132Z,82.37
2023-05-09T03:50:18.708Z,82.31
2023-05-09T03:52:46.524Z,82.02
2023-05-09T03:55:16.357Z,81.96
2023-05-09T03:58:09.614Z,81.29
2023-05-09T04:00:41.778Z,81.50
2023-05-09T04:03:16.391Z,81.32
2023-05-09T04:05:46.888Z,81.25
2023-05-09T04:08:23.637Z,80.95
2023-05-09T04:10:51.140Z,80.75
2023-05-09T04:13:18.307Z,80.50
2023-05-09T04:15:46.263Z,80.86
2023-05-09T04:18:14.789Z,80.81
2023-05-09T04:20:41.675Z,80.58
2023-05-09T04:23:08.788Z,80.20
2023-05-09T04:25:36.032Z,80.37
2023-05-09T04:28:03.633Z,80.74
2023-05-09T04:30:30.818Z,79.48
2023-05-09T04:32:58.591Z,79.67
2023-05-09T04:35:30.028Z,80.28
2023-05-09T04:37:57.483Z,81.34
2023-05-09T04:40:26.904Z,81.92
2023-05-09T04:42:58.218Z,82.12
2023-05-09T04:45:28.940Z,82.46
2023-05-09T04:47:58.385Z,82.38
2023-05-09T04:50:25.397Z,82.34
2023-05-09T04:52:53.559Z,81.43
2023-05-09T04:55:20.683Z,80.64
2023-05-09T04:57:49.889Z,80.22
2023-05-09T05:00:17.226Z,80.50
2023-05-09T05:02:46.882Z,79.20
2023-05-09T05:05:14.638Z,80.21
2023-05-09T05:07:43.341Z,80.61
2023-05-09T05:10:14.379Z,81.85
2023-05-09T05:12:45.127Z,81.89
2023-05-09T05:15:13.940Z,81.99
2023-05-09T05:17:42.671Z,81.70
2023-05-09T05:20:11.134Z,81.71
2023-05-09T05:22:42.867Z,80.94
2023-05-09T05:25:10.462Z,80.68
2023-05-09T05:27:40.092Z,79.94
2023-05-09T05:30:09.572Z,77.79
2023-05-09T05:32:37.069Z,77.14
2023-05-09T05:35:05.142Z,77.72
2023-05-09T05:37:35.255Z,77.93
2023-05-09T05:40:02.780Z,77.30
2023-05-09T05:42:30.409Z,77.76
2023-05-09T05:44:59.183Z,77.93
2023-05-09T05:47:26.247Z,77.10
2023-05-09T05:49:53.669Z,76.67
2023-05-09T05:52:20.508Z,76.73
2023-05-09T05:54:47.355Z,76.22
2023-05-09T05:57:14.630Z,75.70
2023-05-09T05:59:41.634Z,75.89
2023-05-09T06:02:10.132Z,74.72
2023-05-09T06:04:37.057Z,73.58
2023-05-09T06:07:04.049Z,73.24
2023-05-09T06:09:30.980Z,73.08
2023-05-09T06:11:57.990Z,72.75
2023-05-09T06:14:25.438Z,72.58
2023-05-09T06:16:54.651Z,72.54
2023-05-09T06:19:22.907Z,71.51
2023-05-09T06:21:49.880Z,71.94
2023-05-09T06:24:31.679Z,71.07
2023-05-09T06:27:04.431Z,69.86
2023-05-09T06:29:31.308Z,69.47
2023-05-09T06:32:00.286Z,68.73
2023-05-09T06:34:28.522Z,69.44
2023-05-09T06:36:55.457Z,71.11
2023-05-09T06:39:22.384Z,69.59
2023-05-09T06:41:49.316Z,69.81
2023-05-09T06:44:24.505Z,70.11
2023-05-09T06:46:51.566Z,69.57
2023-05-09T06:49:18.373Z,68.53
2023-05-09T06:51:46.748Z,71.24
2023-05-09T06:54:13.542Z,71.68
2023-05-09T06:56:40.511Z,69.79
2023-05-09T06:59:07.553Z,66.35
2023-05-09T07:01:34.355Z,64.92
2023-05-09T07:04:01.163Z,66.66
2023-05-09T07:06:28.037Z,68.63
2023-05-09T07:08:56.173Z,70.00
2023-05-09T07:11:23.074Z,69.62
2023-05-09T07:13:50.010Z,69.39
2023-05-09T07:16:19.082Z,67.79
2023-05-09T07:18:46.286Z,71.18
2023-05-09T07:21:13.201Z,72.55
2023-05-09T07:23:39.967Z,71.83
2023-05-09T07:26:08.242Z,70.58
2023-05-09T07:28:35.325Z,69.29
2023-05-09T07:31:02.174Z,69.16
2023-05-09T07:33:29.409Z,68.01
2023-05-09T07:35:58.518Z,67.57
2023-05-09T07:38:25.572Z,68.09
2023-05-09T07:40:52.397Z,66.64
2023-05-09T07:43:20.713Z,66.64
2023-05-09T07:45:47.536Z,66.50
2023-05-09T07:48:14.648Z,66.69
2023-05-09T07:50:41.525Z,65.84
2023-05-09T07:53:09.167Z,66.38
2023-05-09T07:55:36.312Z,66.11
2023-05-09T07:58:03.202Z,65.97
2023-05-09T08:00:32.458Z,65.75
2023-05-09T08:03:00.028Z,65.02
2023-05-09T08:05:28.157Z,63.74
2023-05-09T08:07:54.927Z,64.80
2023-05-09T08:10:21.913Z,65.29
2023-05-09T08:12:48.929Z,66.46
2023-05-09T08:15:16.494Z,65.53
2023-05-09T08:17:44.999Z,64.45
2023-05-09T08:20:13.201Z,63.38
2023-05-09T08:22:40.666Z,62.22
2023-05-09T08:25:09.123Z,61.60
2023-05-09T08:27:37.299Z,61.80
2023-05-09T08:30:06.008Z,62.59
2023-05-09T08:32:33.864Z,61.51
2023-05-09T08:35:02.180Z,60.22
2023-05-09T08:37:30.197Z,59.63
2023-05-09T08:39:57.099Z,58.17
2023-05-09T08:42:26.789Z,57.63
2023-05-09T08:44:53.863Z,55.88
2023-05-09T08:47:23.322Z,57.58
2023-05-09T08:49:52.187Z,55.39
2023-05-09T08:52:21.713Z,56.73
2023-05-09T08:54:49.341Z,56.30
2023-05-09T08:57:16.388Z,55.49
2023-05-09T08:59:44.078Z,56.00
2023-05-09T09:02:14.241Z,55.70
2023-05-09T09:04:41.694Z,54.72
2023-05-09T09:07:10.830Z,53.50
2023-05-09T09:09:45.995Z,53.03
2023-05-09T09:12:16.070Z,55.50
2023-05-09T09:14:48.893Z,55.62
2023-05-09T09:17:21.143Z,55.42
2023-05-09T09:19:55.030Z,57.06
2023-05-09T09:22:23.130Z,57.34
2023-05-09T09:24:51.884Z,56.50
2023-05-09T09:27:18.792Z,57.42
2023-05-09T09:29:45.659Z,56.51
2023-05-09T09:32:13.158Z,58.17
2023-05-09T09:34:40.338Z,58.34
2023-05-09T09:37:07.695Z,58.12
2023-05-09T09:39:35.312Z,60.07
2023-05-09T09:42:13.073Z,59.17
2023-05-09T09:44:40.023Z,59.79
2023-05-09T09:47:10.516Z,58.51
2023-05-09T09:49:37.439Z,58.95
2023-05-09T09:52:04.378Z,58.32
2023-05-09T09:54:32.150Z,57.80
2023-05-09T09:56:59.076Z,56.52
2023-05-09T09:59:27.816Z,56.11
2023-05-09T10:02:02.937Z,56.52
2023-05-09T10:04:35.808Z,55.59
2023-05-09T10:07:05.260Z,55.24
2023-05-09T10:09:34.741Z,54.00
2023-05-09T10:12:05.195Z,55.28
2023-05-09T10:14:36.102Z,54.33
2023-05-09T10:17:32.190Z,50.70
2023-05-09T10:20:05.883Z,49.26
2023-05-09T10:22:36.514Z,51.15
2023-05-09T10:25:08.772Z,50.64
2023-05-09T10:27:37.708Z,49.18
2023-05-09T10:30:13.205Z,50.73
2023-05-09T10:32:51.973Z,50.58
2023-05-09T10:35:26.191Z,49.05
2023-05-09T10:37:56.309Z,47.85
2023-05-09T10:40:24.168Z,47.16
2023-05-09T10:42:51.268Z,48.13
2023-05-09T10:45:21.094Z,49.36
2023-05-09T10:47:51.698Z,49.39
2023-05-09T10:50:20.156Z,48.65
2023-05-09T10:53:10.448Z,46.50
2023-05-09T10:55:40.475Z,48.19
2023-05-09T10:58:23.596Z,47.38
2023-05-09T11:00:53.832Z,46.16
2023-05-09T11:03:23.871Z,47.86
2023-05-09T11:05:53.520Z,48.45
2023-05-09T11:08:26.064Z,48.84
2023-05-09T11:10:54.344Z,46.93
2023-05-09T11:13:23.475Z,46.70
2023-05-09T11:16:04.585Z,47.07
2023-05-09T11:18:33.719Z,48.20
2023-05-09T11:21:08.473Z,46.23
2023-05-09T11:23:35.536Z,45.57
2023-05-09T11:26:07.737Z,47.17
2023-05-09T11:28:37.021Z,47.57
2023-05-09T11:31:12.391Z,46.55
2023-05-09T11:33:42.471Z,46.79
2023-05-09T11:36:20.601Z,46.94
2023-05-09T11:38:47.966Z,46.47
2023-05-09T11:41:15.700Z,45.75
2023-05-09T11:43:43.710Z,45.29
2023-05-09T11:46:10.618Z,43.81
2023-05-09T11:48:40.581Z,44.15
2023-05-09T11:51:07.813Z,44.67
2023-05-09T11:53:34.758Z,45.97
2023-05-09T11:56:04.594Z,44.91
2023-05-09T11:58:34.027Z,45.91
2023-05-09T12:01:01.570Z,45.34
2023-05-09T12:03:29.431Z,45.60
2023-05-09T12:05:57.789Z,46.72
2023-05-09T12:08:25.192Z,46.37
2023-05-09T12:10:52.004Z,46.43
2023-05-09T12:13:19.133Z,47.24
2023-05-09T12:15:46.061Z,46.45
2023-05-09T12:18:13.192Z,46.50
2023-05-09T12:20:42.731Z,46.84
2023-05-09T12:23:11.678Z,46.92
2023-05-09T12:25:38.730Z,47.59
2023-05-09T12:28:06.344Z,45.48
2023-05-09T12:30:33.893Z,46.00
2023-05-09T12:33:01.070Z,45.78
2023-05-09T12:35:27.923Z,45.69
2023-05-09T12:37:55.995Z,44.65
2023-05-09T12:40:25.018Z,45.25
2023-05-09T12:42:51.980Z,46.46
2023-05-09T12:45:20.449Z,46.60
2023-05-09T12:47:52.204Z,46.90
2023-05-09T12:50:19.625Z,46.93
2023-05-09T12:53:02.578Z,46.69
2023-05-09T12:55:39.287Z,46.80
2023-05-09T12:58:06.149Z,46.19
2023-05-09T13:00:43.868Z,47.64
2023-05-09T13:03:29.790Z,46.37
2023-05-09T13:06:01.483Z,47.23
2023-05-09T13:08:29.985Z,47.73
2023-05-09T13:11:12.000Z,47.42
2023-05-09T13:13:42.895Z,49.19
2023-05-09T13:16:11.496Z,49.34
2023-05-09T13:18:39.614Z,46.55
2023-05-09T13:21:07.313Z,47.29
2023-05-09T13:23:34.283Z,47.60
2023-05-09T13:26:02.622Z,47.68
2023-05-09T13:28:30.781Z,48.21
2023-05-09T13:30:57.945Z,46.85
2023-05-09T13:33:26.572Z,47.60
2023-05-09T13:35:53.922Z,46.99
2023-05-09T13:38:21.835Z,47.89
2023-05-09T13:40:48.712Z,47.10
2023-05-09T13:43:18.066Z,48.30
2023-05-09T13:45:45.582Z,46.77
2023-05-09T13:48:12.515Z,48.06
2023-05-09T13:50:39.459Z,47.70
2023-05-09T13:53:09.301Z,48.42
2023-05-09T13:55:37.245Z,48.13
2023-05-09T13:58:04.691Z,47.86
2023-05-09T14:00:34.969Z,48.54
2023-05-09T14:03:03.190Z,49.23
2023-05-09T14:05:31.671Z,49.45
2023-05-09T14:07:58.508Z,49.52
2023-05-09T14:10:25.550Z,48.82
2023-05-09T14:12:53.569Z,49.31
2023-05-09T14:15:20.824Z,49.30
2023-05-09T14:17:49.268Z,47.74
2023-05-09T14:20:16.903Z,48.73
2023-05-09T14:22:44.656Z,47.84
2023-05-09T14:25:11.655Z,47.23
2023-05-09T14:27:38.587Z,47.27
2023-05-09T14:30:18.697Z,48.49
2023-05-09T14:32:45.541Z,47.56
2023-05-09T14:35:14.076Z,48.27
2023-05-09T14:37:40.994Z,48.56
2023-05-09T14:40:09.709Z,48.08
2023-05-09T14:42:36.610Z,48.17
2023-05-09T14:45:05.940Z,48.35
2023-05-09T14:47:32.838Z,49.18
2023-05-09T14:49:59.676Z,49.53
2023-05-09T14:52:28.089Z,49.77
2023-05-09T14:54:55.019Z,49.73
2023-05-09T14:57:22.762Z,50.79
2023-05-09T14:59:49.717Z,51.61
2023-05-09T15:02:16.566Z,52.75
2023-05-09T15:04:43.674Z,53.43
2023-05-09T15:07:11.053Z,52.97
2023-05-09T15:09:41.204Z,56.21
2023-05-09T15:12:08.243Z,56.80
2023-05-09T15:14:35.440Z,56.51
2023-05-09T15:17:02.628Z,58.29
2023-05-09T15:19:29.714Z,66.52
2023-05-09T15:21:56.603Z,68.04
2023-05-09T15:24:23.461Z,67.38
2023-05-09T15:26:52.095Z,69.70
2023-05-09T15:29:19.026Z,69.94
2023-05-09T15:31:45.909Z,69.56
2023-05-09T15:34:13.013Z,70.05
2023-05-09T15:36:40.114Z,71.25
2023-05-09T15:39:06.913Z,69.42
2023-05-09T15:41:34.974Z,69.65
2023-05-09T15:44:03.242Z,69.76
2023-05-09T15:46:30.327Z,69.68
2023-05-09T15:48:57.406Z,69.45
2023-05-09T15:51:24.717Z,70.05
2023-05-09T15:53:51.739Z,67.36
2023-05-09T15:56:18.850Z,67.46
2023-05-09T15:58:46.780Z,67.97
2023-05-09T16:01:15.143Z,69.81
2023-05-09T16:03:43.108Z,70.63
2023-05-09T16:06:10.069Z,67.91
2023-05-09T16:08:38.909Z,65.76
2023-05-09T16:11:06.729Z,63.52
2023-05-09T16:13:35.702Z,63.01
2023-05-09T16:16:03.788Z,63.47
2023-05-09T16:18:32.605Z,62.26
2023-05-09T16:20:59.429Z,61.50
2023-05-09T16:23:26.217Z,60.37
2023-05-09T16:25:53.569Z,59.57
2023-05-09T16:28:20.504Z,59.63
2023-05-09T16:30:47.610Z,60.13
2023-05-09T16:33:14.391Z,61.10
2023-05-09T16:35:42.709Z,59.94
2023-05-09T16:38:09.651Z,59.73
2023-05-09T16:40:37.062Z,59.96
2023-05-09T16:43:04.060Z,58.04
2023-05-09T16:45:30.921Z,58.40
2023-05-09T16:48:00.708Z,57.63
2023-05-09T16:50:29.025Z,58.49
2023-05-09T16:52:57.225Z,60.29
2023-05-09T16:55:25.176Z,62.58
2023-05-09T16:57:52.280Z,62.56
2023-05-09T17:00:20.768Z,61.29
2023-05-09T17:02:47.731Z,60.63
2023-05-09T17:05:15.043Z,60.49
2023-05-09T17:07:42.746Z,59.77
2023-05-09T17:10:12.712Z,62.74
2023-05-09T17:12:39.560Z,64.71
2023-05-09T17:15:08.970Z,64.26
2023-05-09T17:17:35.850Z,63.14
2023-05-09T17:20:03.197Z,62.73
2023-05-09T17:22:31.394Z,61.47
2023-05-09T17:24:58.343Z,61.42
2023-05-09T17:27:26.744Z,63.50
2023-05-09T17:29:53.601Z,66.60
2023-05-09T17:32:20.455Z,64.09
2023-05-09T17:34:47.328Z,63.79
2023-05-09T17:37:14.360Z,63.79
2023-05-09T17:39:41.904Z,63.39
2023-05-09T17:42:08.727Z,63.46
2023-05-09T17:44:37.005Z,64.67
2023-05-09T17:47:04.238Z,66.62
2023-05-09T17:49:31.063Z,69.09
2023-05-09T17:51:58.193Z,70.29
2023-05-09T17:54:25.355Z,70.97
2023-05-09T17:56:53.691Z,72.03
2023-05-09T17:59:22.205Z,72.82
2023-05-09T18:01:50.560Z,72.44
2023-05-09T18:04:20.149Z,73.98
2023-05-09T18:06:48.704Z,75.85
2023-05-09T18:09:16.493Z,76.26
2023-05-09T18:11:43.341Z,76.35
2023-05-09T18:14:11.171Z,76.81
2023-05-09T18:16:38.250Z,77.50
2023-05-09T18:19:06.583Z,77.77
2023-05-09T18:21:33.456Z,77.92
2023-05-09T18:24:01.130Z,77.83
2023-05-09T18:26:29.246Z,78.26
2023-05-09T18:28:56.533Z,78.56
2023-05-09T18:31:23.966Z,78.53
2023-05-09T18:33:50.818Z,78.63
2023-05-09T18:36:19.116Z,78.56
2023-05-09T18:38:46.036Z,78.94
2023-05-09T18:41:13.614Z,79.52
2023-05-09T18:43:44.242Z,79.82
2023-05-09T18:46:12.482Z,80.10
2023-05-09T18:48:39.313Z,80.28
2023-05-09T18:51:07.091Z,80.67
2023-05-09T18:53:36.354Z,80.66
2023-05-09T18:56:04.611Z,80.24
2023-05-09T18:58:32.349Z,80.84
2023-05-09T19:00:59.803Z,80.81
2023-05-09T19:03:26.782Z,80.84
2023-05-09T19:05:54.695Z,80.60
2023-05-09T19:08:22.003Z,79.83
2023-05-09T19:10:50.468Z,79.23
2023-05-09T19:13:17.522Z,79.27
2023-05-09T19:19:45.388Z,79.62
2023-05-09T19:22:12.689Z,79.82
2023-05-09T19:24:40.015Z,79.66
2023-05-09T19:27:08.333Z,79.21
2023-05-09T19:29:35.227Z,79.25
2023-05-09T19:32:03.412Z,78.62
2023-05-09T19:39:01.940Z,77.93
2023-05-09T19:41:29.352Z,78.71
2023-05-09T19:43:57.523Z,79.10
2023-05-09T19:46:24.668Z,79.08
2023-05-09T19:48:52.398Z,78.84
2023-05-09T19:51:20.395Z,79.10
2023-05-09T19:53:47.320Z,79.37
2023-05-09T19:56:14.251Z,78.95
2023-05-09T19:58:41.100Z,78.84
2023-05-09T20:01:09.410Z,78.16
2023-05-09T20:03:36.364Z,77.78
2023-05-09T20:06:04.301Z,77.75
2023-05-09T20:08:31.363Z,77.94
2023-05-09T20:10:58.225Z,79.45
2023-05-09T20:13:25.672Z,80.25
2023-05-09T20:15:52.780Z,79.80
2023-05-09T20:18:21.082Z,79.67
2023-05-09T20:20:48.169Z,79.95
2023-05-09T20:23:15.169Z,79.72
2023-05-09T20:25:42.108Z,79.61
2023-05-09T20:28:09.656Z,80.32
2023-05-09T20:30:37.387Z,80.08
2023-05-09T20:33:05.379Z,80.58
2023-05-09T20:35:33.800Z,80.62
2023-05-09T20:38:00.671Z,81.39
2023-05-09T20:40:27.928Z,81.72
2023-05-09T20:42:54.849Z,82.74
2023-05-09T20:45:22.136Z,82.94
2023-05-09T20:47:48.989Z,83.65
2023-05-09T20:50:17.109Z,83.64
2023-05-09T20:52:45.834Z,84.40
2023-05-09T20:55:12.690Z,84.03
2023-05-09T20:57:40.778Z,83.99
2023-05-09T21:00:09.454Z,84.43
2023-05-09T21:02:37.864Z,85.17
2023-05-09T21:05:06.256Z,85.30
2023-05-09T21:07:33.206Z,84.92
2023-05-09T21:10:01.463Z,87.66
2023-05-09T21:12:28.505Z,89.04
2023-05-09T21:14:55.323Z,89.39
2023-05-09T21:17:23.550Z,90.12
2023-05-09T21:19:50.672Z,90.68
2023-05-09T21:22:17.821Z,90.59
2023-05-09T21:24:44.945Z,90.53
2023-05-09T21:27:13.604Z,90.22
2023-05-09T21:29:40.715Z,89.84
2023-05-09T21:32:07.633Z,89.78
2023-05-09T21:34:34.832Z,90.03
2023-05-09T21:37:01.639Z,90.18
2023-05-09T21:39:28.504Z,90.33
2023-05-09T21:41:55.712Z,90.15
2023-05-09T21:44:23.936Z,89.47
2023-05-09T21:46:51.150Z,89.46
2023-05-09T21:49:19.078Z,89.24
2023-05-09T21:51:46.240Z,89.39
2023-05-09T21:54:13.189Z,88.98
2023-05-09T21:56:40.333Z,89.75
2023-05-09T21:59:07.394Z,89.69
2023-05-09T22:01:35.966Z,90.61
2023-05-09T22:04:02.976Z,90.48
2023-05-09T22:06:31.161Z,90.49
2023-05-09T22:08:58.233Z,90.15
2023-05-09T22:11:25.240Z,90.48
2023-05-09T22:14:27.813Z,90.57
2023-05-09T22:16:56.165Z,90.54
2023-05-09T22:19:26.331Z,90.40
2023-05-09T22:21:53.532Z,90.35
2023-05-09T22:24:20.354Z,90.35
2023-05-09T22:26:47.649Z,91.04
2023-05-09T22:29:14.635Z,91.12
2023-05-09T22:31:42.255Z,91.53
2023-05-09T22:34:10.580Z,91.85
2023-05-09T22:36:40.266Z,92.56
2023-05-09T22:39:07.537Z,93.87
2023-05-09T22:41:34.611Z,94.16
2023-05-09T22:44:01.518Z,94.28
2023-05-09T22:46:28.567Z,94.47
2023-05-09T22:48:55.957Z,94.16
2023-05-09T22:51:24.278Z,93.34
2023-05-09T22:53:51.187Z,93.49
2023-05-09T22:56:18.079Z,93.00
2023-05-09T22:58:44.963Z,93.51
2023-05-09T23:01:12.217Z,93.62
2023-05-09T23:03:39.351Z,94.04
2023-05-09T23:06:07.105Z,93.70
2023-05-09T23:08:35.418Z,93.89
2023-05-09T23:11:02.387Z,94.67
2023-05-09T23:13:29.508Z,94.49
2023-05-09T23:15:56.498Z,94.77
2023-05-09T23:18:23.380Z,94.24
2023-05-09T23:20:50.322Z,93.76
2023-05-09T23:23:27.197Z,93.82
2023-05-09T23:25:56.035Z,93.78
2023-05-09T23:28:23.480Z,94.11
2023-05-09T23:30:50.359Z,94.07
2023-05-09T23:33:17.625Z,93.86
2023-05-09T23:35:44.463Z,94.14
2023-05-09T23:38:11.409Z,93.64
2023-05-09T23:40:38.315Z,93.45
2023-05-09T23:43:06.578Z,93.48
2023-05-09T23:45:33.619Z,92.33
2023-05-09T23:48:00.535Z,91.00
2023-05-09T23:50:27.439Z,90.83
2023-05-09T23:52:54.424Z,90.76
2023-05-09T23:55:21.303Z,90.47
2023-05-09T23:57:48.156Z,90.14
